Garson, Canada
Current Conditions -  °F | °C
As of 9:00 PM on Wednesday 17 Dec 2014 (Local Time) from CYSB Reporting Station
Light Snow Light Snow  
Wind Chill:   Ceiling: 1400
Heat Index: 18°   Visibility: 3mi
Dew Point: 16°   Wind: 14mph
Humidity: 93%   Direction: 360°N
Pressure: 29.94"   Gusts: 22mph
Location:  46.57°N, 80.87°W
Report Text: CYSB 180200Z 36012G19KT 3SM -SN OVC014 M08/M09 A2994 RMK SC8 SLP161
Loading
Personal Weather Stations






























Interactive Weather Map New forecast layout! Learn more

10-Day Weather Forecast

Advertisements
Track Severe Weather on mobile